Terminal Aerodrome Forecast
Issued by NWS Glasgow, MT

Home | Current Version | Previous Version | Text Only | Print | Product List | Glossary On
Versions: 1 2 3 4 5 6 7 8 9 10 11 12 13 14 15
187
FTUS45 KGGW 271720
TAFGGW
TAF
KGGW 271720Z 2718/2818 29015G25KT P6SM BKN100
     FM272300 33017G25KT P6SM BKN090
     FM280300 34009KT P6SM FEW110
     FM281600 22009KT P6SM FEW080=

USA.gov is the U.S. government's official web portal to all federal, state and local government web resources and services.